Time;durP1;ratioP1;P1;durP2;ratioP2;P2;SDS_P1;SDS_P2;PMS_P1;PMS_P2;Temp;Humidity;BMP_temperature;BMP_pressure;BME280_temperature;BME280_humidity;BME280_pressure;Samples;Min_cycle;Max_cycle;Signal;HPM_P1;HPM_P2
2023/10/27 00:00:07;;;;;;;;;;;18.90;91.60;;;;;;5013917;28;19983;-63
2023/10/27 00:02:42;;;;;;;;;;;18.90;91.50;;;;;;5013781;28;19990;-64
2023/10/27 00:05:08;;;;;;;;;;;18.80;91.80;;;;;;5013518;28;20010;-62
2023/10/27 00:07:33;;;;;;;;;;;18.80;92.30;;;;;;5013797;28;19989;-61
2023/10/27 00:09:59;;;;;;;;;;;18.90;92.60;;;;;;5013608;28;20349;-65
2023/10/27 00:12:25;;;;;;;;;;;18.90;92.10;;;;;;5013373;28;19987;-64
2023/10/27 00:14:51;;;;;;;;;;;18.90;92.20;;;;;;5013899;28;19986;-63
2023/10/27 00:17:16;;;;;;;;;;;18.80;92.40;;;;;;5013861;28;20334;-65
2023/10/27 00:19:42;;;;;;;;;;;18.80;92.90;;;;;;5013698;28;19986;-65
2023/10/27 00:22:07;;;;;;;;;;;18.80;92.50;;;;;;5013468;28;20076;-62
2023/10/27 00:24:33;;;;;;;;;;;18.90;92.80;;;;;;5013567;28;20014;-66
2023/10/27 00:26:58;;;;;;;;;;;18.90;93.20;;;;;;5016776;28;19990;-62
2023/10/27 00:29:25;;;;;;;;;;;18.90;93.40;;;;;;5017312;28;20073;-63
2023/10/27 00:31:51;;;;;;;;;;;18.80;93.40;;;;;;5017344;28;20003;-63
2023/10/27 00:34:17;;;;;;;;;;;18.80;93.20;;;;;;5017363;28;19983;-63
2023/10/27 00:36:43;;;;;;;;;;;18.80;93.60;;;;;;5017128;28;19982;-62
2023/10/27 00:39:09;;;;;;;;;;;18.80;93.60;;;;;;5017222;28;20349;-62
2023/10/27 00:41:34;;;;;;;;;;;18.80;93.70;;;;;;5017116;28;20050;-64
2023/10/27 00:44:00;;;;;;;;;;;18.80;93.70;;;;;;5016795;28;19989;-64
2023/10/27 00:46:25;;;;;;;;;;;18.80;93.20;;;;;;5017308;28;20351;-63
2023/10/27 00:48:51;;;;;;;;;;;18.80;93.20;;;;;;5016993;28;20357;-61
2023/10/27 00:51:16;;;;;;;;;;;18.80;93.00;;;;;;5017055;28;20081;-62
2023/10/27 00:53:42;;;;;;;;;;;18.70;93.50;;;;;;5016909;28;19995;-63
2023/10/27 00:56:08;;;;;;;;;;;18.60;94.60;;;;;;5016927;28;19986;-61
2023/10/27 00:58:33;;;;;;;;;;;18.60;95.00;;;;;;5016628;28;20033;-62
2023/10/27 01:01:02;;;;;;;;;;;18.70;95.00;;;;;;5016767;28;19990;-60
2023/10/27 01:03:29;;;;;;;;;;;18.70;95.50;;;;;;5016737;28;20049;-63
2023/10/27 01:05:54;;;;;;;;;;;18.60;95.20;;;;;;5016606;28;20010;-62
2023/10/27 01:08:20;;;;;;;;;;;18.70;95.60;;;;;;5016510;28;20045;-63
2023/10/27 01:10:46;;;;;;;;;;;18.60;95.90;;;;;;5016387;28;20025;-62
2023/10/27 01:13:11;;;;;;;;;;;18.50;96.40;;;;;;5016500;28;19993;-61
2023/10/27 01:15:37;;;;;;;;;;;18.30;97.10;;;;;;5016399;28;19989;-65
2023/10/27 01:18:02;;;;;;;;;;;18.30;98.40;;;;;;5016499;28;20041;-61
2023/10/27 01:20:28;;;;;;;;;;;18.30;99.00;;;;;;5016252;28;20022;-63
2023/10/27 01:22:54;;;;;;;;;;;18.40;99.10;;;;;;5016238;28;19987;-62
2023/10/27 01:25:19;;;;;;;;;;;18.50;98.70;;;;;;5016447;28;20149;-64
2023/10/27 01:27:45;;;;;;;;;;;18.40;99.60;;;;;;5016298;28;20132;-62
2023/10/27 01:30:11;;;;;;;;;;;18.40;99.80;;;;;;5016128;28;20422;-61
2023/10/27 01:32:37;;;;;;;;;;;18.50;98.80;;;;;;5016096;28;20002;-62
2023/10/27 01:35:03;;;;;;;;;;;18.60;99.00;;;;;;5016162;28;19982;-60
2023/10/27 01:37:28;;;;;;;;;;;18.60;99.50;;;;;;5015620;28;19987;-63
2023/10/27 01:39:56;;;;;;;;;;;18.60;99.50;;;;;;5016221;28;20036;-61
2023/10/27 01:42:22;;;;;;;;;;;18.60;99.90;;;;;;5015819;28;19986;-63
2023/10/27 01:44:48;;;;;;;;;;;18.50;99.90;;;;;;5015867;28;20011;-65
2023/10/27 01:47:13;;;;;;;;;;;18.50;99.90;;;;;;5015810;28;20036;-63
2023/10/27 01:49:39;;;;;;;;;;;18.60;99.90;;;;;;5016062;28;20076;-63
2023/10/27 01:52:04;;;;;;;;;;;18.60;99.90;;;;;;5015927;28;19989;-61
2023/10/27 01:54:30;;;;;;;;;;;18.50;99.90;;;;;;5015437;28;20077;-64
2023/10/27 01:56:55;;;;;;;;;;;18.50;99.90;;;;;;5016003;28;20016;-61
2023/10/27 01:59:21;;;;;;;;;;;18.50;99.90;;;;;;5015910;28;20041;-62
2023/10/27 02:01:46;;;;;;;;;;;18.50;99.90;;;;;;5015649;28;19983;-65
2023/10/27 02:04:12;;;;;;;;;;;18.50;99.90;;;;;;5015378;28;19986;-62
2023/10/27 02:06:38;;;;;;;;;;;18.50;99.90;;;;;;5015583;28;19993;-66
2023/10/27 02:09:03;;;;;;;;;;;18.40;99.90;;;;;;5015282;28;20475;-61
2023/10/27 02:11:29;;;;;;;;;;;18.40;99.10;;;;;;5015333;28;19990;-63
2023/10/27 02:13:54;;;;;;;;;;;18.50;97.10;;;;;;5015413;28;19987;-64
2023/10/27 02:16:20;;;;;;;;;;;18.50;98.70;;;;;;5015331;28;19994;-65
2023/10/27 02:18:45;;;;;;;;;;;18.60;98.70;;;;;;5015252;28;19982;-66
2023/10/27 02:21:11;;;;;;;;;;;18.70;97.80;;;;;;5015067;28;20499;-60
2023/10/27 02:23:36;;;;;;;;;;;18.50;99.40;;;;;;5015258;28;19989;-63
2023/10/27 02:26:02;;;;;;;;;;;18.40;99.90;;;;;;5015074;28;20014;-63
2023/10/27 02:28:28;;;;;;;;;;;18.50;99.90;;;;;;5015276;28;19990;-62
2023/10/27 02:30:53;;;;;;;;;;;18.40;99.90;;;;;;5015097;28;19982;-62
2023/10/27 02:33:19;;;;;;;;;;;18.40;99.90;;;;;;5015070;28;19982;-63
2023/10/27 02:35:44;;;;;;;;;;;18.50;99.90;;;;;;5015041;28;19983;-62
2023/10/27 02:38:10;;;;;;;;;;;18.50;99.20;;;;;;5015009;28;20037;-65
2023/10/27 02:40:35;;;;;;;;;;;18.40;98.50;;;;;;5014645;28;20058;-64
2023/10/27 02:43:01;;;;;;;;;;;18.30;99.50;;;;;;4997205;28;19986;-64
2023/10/27 02:45:26;;;;;;;;;;;18.40;99.60;;;;;;5014801;28;20006;-63
2023/10/27 02:47:52;;;;;;;;;;;18.50;99.90;;;;;;5014218;28;20511;-66
2023/10/27 02:50:17;;;;;;;;;;;18.60;99.90;;;;;;5014975;28;20380;-64
2023/10/27 02:52:43;;;;;;;;;;;18.60;99.90;;;;;;5014713;28;20352;-64
2023/10/27 02:55:09;;;;;;;;;;;18.60;99.90;;;;;;5014395;28;20368;-63
2023/10/27 02:57:34;;;;;;;;;;;18.50;99.90;;;;;;5014569;28;19982;-62
2023/10/27 03:00:00;;;;;;;;;;;18.50;99.00;;;;;;5014607;28;19983;-65
2023/10/27 03:02:27;;;;;;;;;;;18.50;98.30;;;;;;5014463;28;19983;-60
2023/10/27 03:04:54;;;;;;;;;;;18.50;99.50;;;;;;5014406;28;20007;-63
2023/10/27 03:07:20;;;;;;;;;;;18.60;99.50;;;;;;5014332;28;19987;-64
2023/10/27 03:09:45;;;;;;;;;;;18.60;99.90;;;;;;5014386;28;19993;-64
2023/10/27 03:12:11;;;;;;;;;;;18.50;99.90;;;;;;5014363;28;19989;-65
2023/10/27 03:14:37;;;;;;;;;;;18.60;99.90;;;;;;5014337;28;20348;-63
2023/10/27 03:17:03;;;;;;;;;;;18.60;99.90;;;;;;5014600;28;19986;-60
2023/10/27 03:19:29;;;;;;;;;;;18.60;99.90;;;;;;5014248;28;20463;-65
2023/10/27 03:21:54;;;;;;;;;;;18.70;99.90;;;;;;5013825;28;20018;-63
2023/10/27 03:24:20;;;;;;;;;;;18.70;99.90;;;;;;5014398;28;19982;-63
2023/10/27 03:26:45;;;;;;;;;;;18.70;99.90;;;;;;5014428;28;20460;-64
2023/10/27 03:29:11;;;;;;;;;;;18.60;98.40;;;;;;5014025;28;20353;-61
2023/10/27 03:31:36;;;;;;;;;;;18.60;99.90;;;;;;5014286;28;20029;-64
2023/10/27 03:34:02;;;;;;;;;;;18.60;99.90;;;;;;5014145;28;19990;-63
2023/10/27 03:36:28;;;;;;;;;;;18.60;99.90;;;;;;5013763;28;19983;-62
2023/10/27 03:38:53;;;;;;;;;;;18.60;99.90;;;;;;5014028;28;20006;-63
2023/10/27 03:41:19;;;;;;;;;;;18.50;99.90;;;;;;5014257;28;20463;-60
2023/10/27 03:43:45;;;;;;;;;;;18.40;99.90;;;;;;5013879;28;19982;-64
2023/10/27 03:46:10;;;;;;;;;;;18.50;99.90;;;;;;5014021;28;20435;-64
2023/10/27 03:48:36;;;;;;;;;;;18.50;99.90;;;;;;5013897;28;20356;-62
2023/10/27 03:51:05;;;;;;;;;;;18.50;99.90;;;;;;5013879;28;19993;-65
2023/10/27 03:53:33;;;;;;;;;;;18.40;99.90;;;;;;5013732;28;19994;-62
2023/10/27 03:55:59;;;;;;;;;;;18.40;99.90;;;;;;5013953;28;20361;-62
2023/10/27 03:58:24;;;;;;;;;;;18.50;99.90;;;;;;5013853;28;19983;-63
2023/10/27 04:00:50;;;;;;;;;;;18.40;99.90;;;;;;5017139;28;20417;-63
2023/10/27 04:03:16;;;;;;;;;;;18.40;99.90;;;;;;5017807;28;19986;-65
2023/10/27 04:05:41;;;;;;;;;;;18.50;99.90;;;;;;5017762;28;20068;-63
2023/10/27 04:08:07;;;;;;;;;;;18.50;99.90;;;;;;5017975;28;19987;-61
2023/10/27 04:10:34;;;;;;;;;;;18.40;99.90;;;;;;5017726;28;20447;-62
2023/10/27 04:12:59;;;;;;;;;;;18.40;99.90;;;;;;5017780;28;19989;-62
2023/10/27 04:15:25;;;;;;;;;;;18.40;99.90;;;;;;5017612;28;20069;-64
2023/10/27 04:17:51;;;;;;;;;;;18.50;99.90;;;;;;5017541;28;20499;-65
2023/10/27 04:20:16;;;;;;;;;;;18.50;98.10;;;;;;5017300;28;19986;-65
2023/10/27 04:22:42;;;;;;;;;;;18.50;99.60;;;;;;5017554;28;20005;-66
2023/10/27 04:25:09;;;;;;;;;;;18.50;98.70;;;;;;5017339;28;20018;-64
2023/10/27 04:27:38;;;;;;;;;;;18.60;99.90;;;;;;5017694;28;20025;-62
2023/10/27 04:30:07;;;;;;;;;;;18.60;99.90;;;;;;5017352;28;19986;-65
2023/10/27 04:32:34;;;;;;;;;;;18.60;99.90;;;;;;5017118;28;20006;-64
2023/10/27 04:34:59;;;;;;;;;;;18.60;99.90;;;;;;5017013;28;19991;-64
2023/10/27 04:37:27;;;;;;;;;;;18.60;99.90;;;;;;5017222;28;20077;-62
2023/10/27 04:39:54;;;;;;;;;;;18.50;99.90;;;;;;5017086;28;19983;-61
2023/10/27 04:42:20;;;;;;;;;;;18.40;99.90;;;;;;5017235;28;19989;-61
2023/10/27 04:44:46;;;;;;;;;;;18.40;99.90;;;;;;5017298;28;20010;-61
2023/10/27 04:47:11;;;;;;;;;;;18.40;99.90;;;;;;5017032;28;19982;-61
2023/10/27 04:49:37;;;;;;;;;;;18.40;99.90;;;;;;5017082;28;19989;-61
2023/10/27 04:52:02;;;;;;;;;;;18.40;99.90;;;;;;5017283;28;19993;-62
2023/10/27 04:54:28;;;;;;;;;;;18.40;99.90;;;;;;5016842;28;20009;-62
2023/10/27 04:56:53;;;;;;;;;;;18.50;99.90;;;;;;5017037;28;20069;-64
2023/10/27 04:59:19;;;;;;;;;;;18.40;99.90;;;;;;5016726;28;19983;-63
2023/10/27 05:01:45;;;;;;;;;;;18.50;99.90;;;;;;5016586;28;19986;-64
2023/10/27 05:04:10;;;;;;;;;;;18.50;99.90;;;;;;5016616;28;19989;-63
2023/10/27 05:06:36;;;;;;;;;;;18.50;99.90;;;;;;5016797;28;19989;-62
2023/10/27 05:09:02;;;;;;;;;;;18.60;99.90;;;;;;5016941;28;20073;-64
2023/10/27 05:11:27;;;;;;;;;;;18.60;99.90;;;;;;5015951;28;19986;-61
2023/10/27 05:13:53;;;;;;;;;;;18.70;99.90;;;;;;5016473;28;20360;-65
2023/10/27 05:16:18;;;;;;;;;;;18.70;99.90;;;;;;5016762;28;20058;-61
2023/10/27 05:18:44;;;;;;;;;;;18.60;99.90;;;;;;5016185;28;19986;-65
2023/10/27 05:21:16;;;;;;;;;;;18.60;99.90;;;;;;5016328;28;20045;-62
2023/10/27 05:23:42;;;;;;;;;;;18.60;99.90;;;;;;5016612;28;19993;-64
2023/10/27 05:26:07;;;;;;;;;;;18.50;99.90;;;;;;5016252;28;20006;-64
2023/10/27 05:28:33;;;;;;;;;;;18.50;99.90;;;;;;5016261;28;19982;-65
2023/10/27 05:30:58;;;;;;;;;;;18.50;99.90;;;;;;5016202;28;20460;-62
2023/10/27 05:33:24;;;;;;;;;;;18.60;99.90;;;;;;5015988;28;20344;-62
2023/10/27 05:35:49;;;;;;;;;;;18.60;99.90;;;;;;5024706;28;19998;-61
2023/10/27 05:38:15;;;;;;;;;;;18.60;99.90;;;;;;5025517;28;19989;-61
2023/10/27 05:40:41;;;;;;;;;;;18.60;99.90;;;;;;5032517;28;19992;-61
2023/10/27 05:43:07;;;;;;;;;;;18.50;99.90;;;;;;5018283;28;19993;-62
2023/10/27 05:45:32;;;;;;;;;;;18.50;99.90;;;;;;5021779;28;20372;-61
2023/10/27 05:47:58;;;;;;;;;;;18.60;99.90;;;;;;5001434;28;19997;-63
2023/10/27 05:50:24;;;;;;;;;;;18.60;99.90;;;;;;4999867;28;19997;-62
2023/10/27 05:52:50;;;;;;;;;;;18.70;99.90;;;;;;4998353;28;20073;-62
2023/10/27 05:55:15;;;;;;;;;;;18.60;99.90;;;;;;5015103;28;19989;-65
2023/10/27 05:57:41;;;;;;;;;;;18.70;99.90;;;;;;5021139;28;20393;-64
2023/10/27 06:00:10;;;;;;;;;;;18.70;99.90;;;;;;5031057;28;20732;-65
2023/10/27 06:02:36;;;;;;;;;;;18.80;99.20;;;;;;5005691;28;19994;-65
2023/10/27 06:05:02;;;;;;;;;;;18.90;99.60;;;;;;5032958;28;20006;-64
2023/10/27 06:07:27;;;;;;;;;;;19.00;99.90;;;;;;5024020;28;20009;-64
2023/10/27 06:09:53;;;;;;;;;;;19.10;99.30;;;;;;5032222;28;19990;-62
2023/10/27 06:12:18;;;;;;;;;;;19.10;99.40;;;;;;5034444;28;19993;-63
2023/10/27 06:14:44;;;;;;;;;;;19.10;99.70;;;;;;5016758;28;19993;-63
2023/10/27 06:17:11;;;;;;;;;;;19.10;99.20;;;;;;5034298;28;20001;-63
2023/10/27 06:19:36;;;;;;;;;;;19.10;99.10;;;;;;5031780;28;20247;-64
2023/10/27 06:22:03;;;;;;;;;;;19.20;99.90;;;;;;5029875;28;20021;-67
2023/10/27 06:24:29;;;;;;;;;;;19.10;99.60;;;;;;5031944;28;20048;-65
2023/10/27 06:26:54;;;;;;;;;;;19.20;99.50;;;;;;5032468;28;20465;-62
2023/10/27 06:29:24;;;;;;;;;;;19.20;99.90;;;;;;5033155;28;19994;-67
2023/10/27 06:31:50;;;;;;;;;;;19.20;99.60;;;;;;5033369;28;20460;-66
2023/10/27 06:34:15;;;;;;;;;;;19.30;99.80;;;;;;5033173;28;20033;-62
2023/10/27 06:36:41;;;;;;;;;;;19.20;99.70;;;;;;5033276;28;20073;-64
2023/10/27 06:39:07;;;;;;;;;;;19.20;99.60;;;;;;5034050;28;20051;-63
2023/10/27 06:41:33;;;;;;;;;;;19.20;99.90;;;;;;5032872;28;19986;-62
2023/10/27 06:44:00;;;;;;;;;;;19.20;99.80;;;;;;5033032;28;20036;-66
2023/10/27 06:46:25;;;;;;;;;;;19.20;95.90;;;;;;5032955;28;20021;-61
2023/10/27 06:48:52;;;;;;;;;;;19.40;94.20;;;;;;5014114;28;19990;-63
2023/10/27 06:51:17;;;;;;;;;;;19.70;91.20;;;;;;5027485;28;19986;-61
2023/10/27 06:53:43;;;;;;;;;;;20.00;84.90;;;;;;5031705;28;19986;-61
2023/10/27 06:56:08;;;;;;;;;;;20.30;81.20;;;;;;5031707;28;20017;-65
2023/10/27 06:58:34;;;;;;;;;;;20.50;74.50;;;;;;5031559;28;19997;-59
2023/10/27 07:01:06;;;;;;;;;;;20.80;72.50;;;;;;5029620;28;20499;-63
2023/10/27 07:03:32;;;;;;;;;;;21.10;70.40;;;;;;5011768;28;19990;-64
2023/10/27 07:05:59;;;;;;;;;;;21.30;69.60;;;;;;5029053;28;20052;-65
2023/10/27 07:08:25;;;;;;;;;;;21.40;67.70;;;;;;5027447;28;20029;-63
2023/10/27 07:10:54;;;;;;;;;;;21.50;67.00;;;;;;5030189;28;20077;-66
2023/10/27 07:13:19;;;;;;;;;;;21.50;67.20;;;;;;5013056;28;20364;-60
2023/10/27 07:15:45;;;;;;;;;;;21.60;66.00;;;;;;5032440;28;19982;-63
2023/10/27 07:18:10;;;;;;;;;;;21.70;65.80;;;;;;5030233;28;19990;-63
2023/10/27 07:20:39;;;;;;;;;;;21.80;65.30;;;;;;5032300;28;20063;-63
2023/10/27 07:23:05;;;;;;;;;;;21.80;64.90;;;;;;5033121;28;19982;-65
2023/10/27 07:25:30;;;;;;;;;;;21.90;65.10;;;;;;5033046;28;20151;-66
2023/10/27 07:27:57;;;;;;;;;;;21.90;63.90;;;;;;5032130;28;19987;-65
2023/10/27 07:30:22;;;;;;;;;;;22.00;65.80;;;;;;5033024;28;19990;-64
2023/10/27 07:32:48;;;;;;;;;;;22.00;62.90;;;;;;5032480;28;20539;-59
2023/10/27 07:35:14;;;;;;;;;;;22.10;61.70;;;;;;5013317;28;19998;-63
2023/10/27 07:37:40;;;;;;;;;;;22.20;61.50;;;;;;5028938;28;20043;-65
2023/10/27 07:40:06;;;;;;;;;;;22.30;61.00;;;;;;5029915;28;19993;-61
2023/10/27 07:42:32;;;;;;;;;;;22.30;61.00;;;;;;5031647;28;20012;-62
2023/10/27 07:44:58;;;;;;;;;;;22.40;60.20;;;;;;5029760;28;20006;-62
2023/10/27 07:47:23;;;;;;;;;;;22.40;60.20;;;;;;5010006;28;20449;-61
2023/10/27 07:49:49;;;;;;;;;;;22.40;59.80;;;;;;5010396;28;19982;-62
2023/10/27 07:52:15;;;;;;;;;;;22.40;59.70;;;;;;4992722;28;20065;-61
2023/10/27 07:54:40;;;;;;;;;;;22.40;59.10;;;;;;5010187;28;20441;-65
2023/10/27 07:57:06;;;;;;;;;;;22.60;59.00;;;;;;5008847;28;20420;-63
2023/10/27 07:59:32;;;;;;;;;;;22.60;58.70;;;;;;5009454;28;20461;-63
2023/10/27 08:02:00;;;;;;;;;;;22.60;58.20;;;;;;5009576;28;20032;-64
2023/10/27 08:04:26;;;;;;;;;;;22.80;57.90;;;;;;5009978;28;19994;-64
2023/10/27 08:06:52;;;;;;;;;;;22.80;57.60;;;;;;5011173;28;20042;-62
2023/10/27 08:09:21;;;;;;;;;;;22.80;57.80;;;;;;5012162;28;20365;-63
2023/10/27 08:11:49;;;;;;;;;;;22.80;57.80;;;;;;5011022;28;20037;-63
2023/10/27 08:14:15;;;;;;;;;;;22.80;58.00;;;;;;5010754;28;20081;-64
2023/10/27 08:16:41;;;;;;;;;;;22.80;57.00;;;;;;5008040;28;20017;-63
2023/10/27 08:19:07;;;;;;;;;;;22.80;57.60;;;;;;5007247;28;20016;-63
2023/10/27 08:21:32;;;;;;;;;;;22.90;58.00;;;;;;5032070;28;20526;-64
2023/10/27 08:23:58;;;;;;;;;;;22.90;57.10;;;;;;5014284;28;19993;-58
2023/10/27 08:26:24;;;;;;;;;;;23.00;57.40;;;;;;5030978;28;20010;-63
2023/10/27 08:28:49;;;;;;;;;;;23.10;57.40;;;;;;5030399;28;20026;-60
2023/10/27 08:31:16;;;;;;;;;;;23.10;57.50;;;;;;5030195;28;19998;-63
2023/10/27 08:33:42;;;;;;;;;;;23.10;56.60;;;;;;5032215;28;19982;-64
2023/10/27 08:36:08;;;;;;;;;;;23.20;56.00;;;;;;5032909;28;19986;-65
2023/10/27 08:38:33;;;;;;;;;;;23.40;57.10;;;;;;5029942;28;20049;-61
2023/10/27 08:40:59;;;;;;;;;;;23.40;56.70;;;;;;5030949;28;20404;-62
2023/10/27 08:43:25;;;;;;;;;;;23.50;55.30;;;;;;5032321;28;20081;-65
2023/10/27 08:45:51;;;;;;;;;;;23.60;55.40;;;;;;5029871;28;20467;-68
2023/10/27 08:48:17;;;;;;;;;;;23.70;54.60;;;;;;5034558;28;19990;-62
2023/10/27 08:50:42;;;;;;;;;;;23.80;55.00;;;;;;5033114;28;19993;-64
2023/10/27 08:53:12;;;;;;;;;;;24.00;54.90;;;;;;5033763;28;20413;-64
2023/10/27 08:55:38;;;;;;;;;;;24.00;54.90;;;;;;5034383;28;20468;-61
2023/10/27 08:58:03;;;;;;;;;;;24.20;54.70;;;;;;5034765;28;20033;-66
2023/10/27 09:00:30;;;;;;;;;;;24.40;54.10;;;;;;5033954;28;20040;-64
2023/10/27 09:02:55;;;;;;;;;;;24.60;53.90;;;;;;5016935;28;19993;-63
2023/10/27 09:05:23;;;;;;;;;;;24.70;52.80;;;;;;5034262;28;20010;-62
2023/10/27 09:07:49;;;;;;;;;;;24.90;52.00;;;;;;5033771;28;19990;-61
2023/10/27 09:10:17;;;;;;;;;;;25.00;52.00;;;;;;5034531;28;20060;-64
2023/10/27 09:12:44;;;;;;;;;;;25.20;52.20;;;;;;5034638;28;20077;-63
2023/10/27 09:15:12;;;;;;;;;;;25.10;52.20;;;;;;5034763;28;20029;-63
2023/10/27 09:17:50;;;;;;;;;;;25.30;51.20;;;;;;5035251;28;19993;-64
2023/10/27 09:20:27;;;;;;;;;;;25.40;50.50;;;;;;5035115;28;19993;-63
2023/10/27 09:22:55;;;;;;;;;;;25.50;51.20;;;;;;5017605;28;19986;-64
2023/10/27 09:25:21;;;;;;;;;;;25.60;50.80;;;;;;5033165;28;20089;-63
2023/10/27 09:27:48;;;;;;;;;;;25.60;49.60;;;;;;5034077;28;19987;-62
2023/10/27 09:30:24;;;;;;;;;;;25.60;50.30;;;;;;5033614;28;19989;-65
2023/10/27 09:32:49;;;;;;;;;;;25.60;50.30;;;;;;5031795;28;20427;-65
2023/10/27 09:35:17;;;;;;;;;;;25.60;50.70;;;;;;5030821;28;20320;-61
2023/10/27 09:37:43;;;;;;;;;;;25.50;50.70;;;;;;5029155;28;20310;-62
2023/10/27 09:40:11;;;;;;;;;;;25.40;50.60;;;;;;5013577;28;20040;-63
2023/10/27 09:42:37;;;;;;;;;;;25.40;49.80;;;;;;5013864;28;19987;-64
2023/10/27 09:45:07;;;;;;;;;;;25.20;50.10;;;;;;5014112;28;20006;-61
2023/10/27 09:47:43;;;;;;;;;;;25.10;50.60;;;;;;5019488;28;20412;-59
2023/10/27 09:50:12;;;;;;;;;;;25.00;50.60;;;;;;5033336;28;19994;-64
2023/10/27 09:52:40;;;;;;;;;;;25.00;49.70;;;;;;5032873;28;19993;-63
2023/10/27 09:55:07;;;;;;;;;;;25.00;51.10;;;;;;5032446;28;19990;-63
2023/10/27 09:57:33;;;;;;;;;;;25.20;51.30;;;;;;5028853;28;19994;-63
2023/10/27 09:59:59;;;;;;;;;;;25.10;49.30;;;;;;5024867;28;20343;-64
2023/10/27 10:02:25;;;;;;;;;;;25.20;49.90;;;;;;5028629;28;19990;-62
2023/10/27 10:04:51;;;;;;;;;;;25.20;49.30;;;;;;5027600;28;20021;-60
2023/10/27 10:07:37;;;;;;;;;;;25.30;50.50;;;;;;5032099;28;20360;-59
2023/10/27 10:10:17;;;;;;;;;;;25.40;49.50;;;;;;5033570;28;19986;-62
2023/10/27 10:13:02;;;;;;;;;;;25.60;49.00;;;;;;5035278;28;20033;-61
2023/10/27 10:15:28;;;;;;;;;;;25.60;48.80;;;;;;5033417;28;19990;-61
2023/10/27 10:17:55;;;;;;;;;;;25.50;50.00;;;;;;5033887;28;20364;-62
2023/10/27 10:20:56;;;;;;;;;;;25.60;49.00;;;;;;5034415;28;20137;-59
2023/10/27 10:23:24;;;;;;;;;;;25.60;49.10;;;;;;4981453;28;20364;-61
2023/10/27 10:25:56;;;;;;;;;;;25.60;49.00;;;;;;5034635;28;20013;-62
2023/10/27 10:28:26;;;;;;;;;;;25.70;50.10;;;;;;5034797;28;19993;-62
2023/10/27 10:31:06;;;;;;;;;;;25.80;49.10;;;;;;5034665;28;19983;-63
2023/10/27 10:33:32;;;;;;;;;;;25.60;48.30;;;;;;5033523;28;20043;-68
2023/10/27 10:36:22;;;;;;;;;;;25.40;48.60;;;;;;5032747;28;20040;-65
2023/10/27 10:38:57;;;;;;;;;;;25.30;49.50;;;;;;5033859;28;20064;-63
2023/10/27 10:41:41;;;;;;;;;;;25.40;49.20;;;;;;5034130;28;20025;-66
2023/10/27 10:44:11;;;;;;;;;;;25.50;48.80;;;;;;5034316;28;19982;-66
2023/10/27 10:46:37;;;;;;;;;;;25.70;48.10;;;;;;5034212;28;20014;-61
2023/10/27 10:49:02;;;;;;;;;;;25.60;48.60;;;;;;5033644;28;19989;-60
2023/10/27 10:51:36;;;;;;;;;;;25.60;49.00;;;;;;5033913;28;19991;-64
2023/10/27 10:54:02;;;;;;;;;;;25.60;49.10;;;;;;5034425;28;20025;-66
2023/10/27 10:56:27;;;;;;;;;;;25.50;48.70;;;;;;5034247;28;20013;-60
2023/10/27 10:58:53;;;;;;;;;;;25.50;49.50;;;;;;5033398;28;20509;-60
2023/10/27 11:01:20;;;;;;;;;;;25.50;49.00;;;;;;5034015;28;19986;-59
2023/10/27 11:03:47;;;;;;;;;;;25.60;49.00;;;;;;5034091;28;20539;-67
2023/10/27 11:06:13;;;;;;;;;;;25.60;48.90;;;;;;5032673;28;20483;-66
2023/10/27 11:08:39;;;;;;;;;;;25.60;48.80;;;;;;5032647;28;19994;-62
2023/10/27 11:11:06;;;;;;;;;;;25.60;48.80;;;;;;5018899;28;20002;-62
2023/10/27 11:13:33;;;;;;;;;;;25.70;49.30;;;;;;5017148;28;20429;-61
2023/10/27 11:16:00;;;;;;;;;;;25.70;48.90;;;;;;5033889;28;19994;-64
2023/10/27 11:18:29;;;;;;;;;;;25.70;49.90;;;;;;5032849;28;20069;-62
2023/10/27 11:20:55;;;;;;;;;;;25.70;49.30;;;;;;5031660;28;20022;-62
2023/10/27 11:23:21;;;;;;;;;;;25.60;49.50;;;;;;5031078;28;20092;-61
2023/10/27 11:25:46;;;;;;;;;;;25.60;49.60;;;;;;5030358;28;20010;-61
2023/10/27 11:28:40;;;;;;;;;;;25.50;49.40;;;;;;5030561;28;20419;-61
2023/10/27 11:31:11;;;;;;;;;;;25.40;49.90;;;;;;5027724;28;19986;-64
2023/10/27 11:33:56;;;;;;;;;;;25.40;50.00;;;;;;5032745;28;19986;-64
2023/10/27 11:36:22;;;;;;;;;;;25.40;49.90;;;;;;5032830;28;19985;-59
2023/10/27 11:38:48;;;;;;;;;;;25.30;50.30;;;;;;5033731;28;19994;-63
2023/10/27 11:41:13;;;;;;;;;;;25.30;51.00;;;;;;5033703;28;20029;-60
2023/10/27 11:43:40;;;;;;;;;;;25.30;50.20;;;;;;5033374;28;20344;-65
2023/10/27 11:46:13;;;;;;;;;;;25.40;50.30;;;;;;5033479;28;20437;-61
2023/10/27 11:48:39;;;;;;;;;;;25.50;49.70;;;;;;5033630;28;19990;-62
2023/10/27 11:51:05;;;;;;;;;;;25.50;49.70;;;;;;5033544;28;19986;-61
2023/10/27 11:53:30;;;;;;;;;;;25.60;49.90;;;;;;5033454;28;19994;-62
2023/10/27 11:55:56;;;;;;;;;;;25.60;50.20;;;;;;5033579;28;19982;-63
2023/10/27 11:58:22;;;;;;;;;;;25.70;50.00;;;;;;5033794;28;20039;-60
2023/10/27 12:00:47;;;;;;;;;;;25.80;50.20;;;;;;5033367;28;20364;-62
2023/10/27 12:03:13;;;;;;;;;;;25.80;49.80;;;;;;5032086;28;20089;-62
2023/10/27 12:05:38;;;;;;;;;;;25.80;48.90;;;;;;5032377;28;20024;-62
2023/10/27 12:08:04;;;;;;;;;;;25.70;50.40;;;;;;5032725;28;19986;-63
2023/10/27 12:10:32;;;;;;;;;;;25.80;50.20;;;;;;5032796;28;19982;-63
2023/10/27 12:12:58;;;;;;;;;;;25.90;49.60;;;;;;5032745;28;19982;-61
2023/10/27 12:15:24;;;;;;;;;;;25.90;49.50;;;;;;5032719;28;20458;-62
2023/10/27 12:17:50;;;;;;;;;;;25.90;49.80;;;;;;5032975;28;20076;-61
2023/10/27 12:20:17;;;;;;;;;;;25.80;49.80;;;;;;5033734;28;19982;-63
2023/10/27 12:22:43;;;;;;;;;;;25.80;50.00;;;;;;5037307;28;19986;-63
2023/10/27 12:25:09;;;;;;;;;;;25.80;49.90;;;;;;5037209;28;20021;-64
2023/10/27 12:27:35;;;;;;;;;;;25.80;50.30;;;;;;5037220;28;20005;-61
2023/10/27 12:30:00;;;;;;;;;;;25.80;50.00;;;;;;5037234;28;19982;-62
2023/10/27 12:32:32;;;;;;;;;;;25.70;50.20;;;;;;5037392;28;19989;-62
2023/10/27 12:35:01;;;;;;;;;;;25.60;50.40;;;;;;5037005;28;20351;-63
2023/10/27 12:37:26;;;;;;;;;;;25.50;50.50;;;;;;5037255;28;20002;-67
2023/10/27 12:39:53;;;;;;;;;;;25.50;50.90;;;;;;5037206;28;19993;-64
2023/10/27 12:42:18;;;;;;;;;;;25.50;51.40;;;;;;5037022;28;20463;-65
2023/10/27 12:44:45;;;;;;;;;;;25.40;51.00;;;;;;5036978;28;20055;-65
2023/10/27 12:47:10;;;;;;;;;;;25.30;51.20;;;;;;5037119;28;20029;-62
2023/10/27 12:49:38;;;;;;;;;;;25.30;51.10;;;;;;5036602;28;20025;-61
2023/10/27 12:52:05;;;;;;;;;;;25.40;51.30;;;;;;5036935;28;19983;-64
2023/10/27 12:54:34;;;;;;;;;;;25.40;51.60;;;;;;5036633;28;19986;-61
2023/10/27 12:56:59;;;;;;;;;;;25.40;51.50;;;;;;5036963;28;20398;-63
2023/10/27 12:59:25;;;;;;;;;;;25.30;52.00;;;;;;5036807;28;20029;-66
2023/10/27 13:01:50;;;;;;;;;;;25.40;52.10;;;;;;5036403;28;20444;-66
2023/10/27 13:04:17;;;;;;;;;;;25.40;52.30;;;;;;5036687;28;20072;-65
2023/10/27 13:06:44;;;;;;;;;;;25.40;52.30;;;;;;5036457;28;20010;-63
2023/10/27 13:09:10;;;;;;;;;;;25.40;55.50;;;;;;5036486;28;20119;-61
2023/10/27 13:11:36;;;;;;;;;;;25.30;58.00;;;;;;5036410;28;19986;-65
2023/10/27 13:14:01;;;;;;;;;;;25.30;55.80;;;;;;5036659;28;19986;-61
2023/10/27 13:16:27;;;;;;;;;;;25.30;57.70;;;;;;5036076;28;20452;-65
2023/10/27 13:18:53;;;;;;;;;;;25.20;60.50;;;;;;5036480;28;19982;-64
2023/10/27 13:21:18;;;;;;;;;;;25.10;61.10;;;;;;5036115;28;20022;-66
2023/10/27 13:23:44;;;;;;;;;;;24.90;61.00;;;;;;5036169;28;20500;-64
2023/10/27 13:26:10;;;;;;;;;;;24.90;60.00;;;;;;5036108;28;20488;-61
2023/10/27 13:28:36;;;;;;;;;;;24.90;61.70;;;;;;5036242;28;19997;-63
2023/10/27 13:31:02;;;;;;;;;;;24.90;60.50;;;;;;5035748;28;20432;-62
2023/10/27 13:33:27;;;;;;;;;;;24.90;62.00;;;;;;5035274;28;19982;-63
2023/10/27 13:36:08;;;;;;;;;;;24.90;58.60;;;;;;5036047;28;20025;-64
2023/10/27 13:38:34;;;;;;;;;;;24.90;61.80;;;;;;5035797;28;20005;-63
2023/10/27 13:41:00;;;;;;;;;;;25.00;61.50;;;;;;5036173;28;19986;-62
2023/10/27 13:43:27;;;;;;;;;;;24.90;59.80;;;;;;5036103;28;20428;-62
2023/10/27 13:46:00;;;;;;;;;;;24.90;61.40;;;;;;5035532;28;20532;-63
2023/10/27 13:48:26;;;;;;;;;;;24.70;61.90;;;;;;5035945;28;20387;-64
2023/10/27 13:50:51;;;;;;;;;;;24.50;67.10;;;;;;5035948;28;19986;-64
2023/10/27 13:53:18;;;;;;;;;;;24.40;66.40;;;;;;5035656;28;20348;-63
2023/10/27 13:55:46;;;;;;;;;;;24.40;62.70;;;;;;5035687;28;19986;-63
2023/10/27 13:58:15;;;;;;;;;;;24.40;64.90;;;;;;5035827;28;19993;-64
2023/10/27 14:00:41;;;;;;;;;;;24.40;65.10;;;;;;5035532;28;20372;-65
2023/10/27 14:03:08;;;;;;;;;;;24.20;66.10;;;;;;5035784;28;20002;-61
2023/10/27 14:05:34;;;;;;;;;;;24.00;72.70;;;;;;5035574;28;20017;-61
2023/10/27 14:07:59;;;;;;;;;;;23.70;79.00;;;;;;5035310;28;20365;-62
2023/10/27 14:10:26;;;;;;;;;;;23.40;90.00;;;;;;5035338;28;20044;-65
2023/10/27 14:12:52;;;;;;;;;;;22.90;93.40;;;;;;5035301;28;20365;-66